Terminal Aerodrome Forecast
Issued by NWS

Home | Current Version | Previous Version | Text Only | Print | Product List | Glossary On
Versions: 1 2 3 4 5 6 7 8 9 10 11 12 13 14 15 16 17 18 19 20 21 22 23 24 25
000
FTUS45 KCYS 220520
TAFLAR
TAF
KLAR 220520Z 2206/2306 30020KT P6SM BKN090
      TEMPO 2206/2209 5SM -SHSN OVC025
     FM221500 32028G42KT P6SM BKN070
     FM230200 31011KT P6SM BKN070=

USA.gov is the U.S. government's official web portal to all federal, state and local government web resources and services.